createdAt,value
2022-11-10T00:04:01.195Z,101766.97
2022-11-10T00:06:29.132Z,101793.03
2022-11-10T00:09:01.859Z,101801.06
2022-11-10T00:11:36.142Z,101815.50
2022-11-10T00:14:24.453Z,101816.56
2022-11-10T00:17:01.278Z,101821.94
2022-11-10T00:19:41.314Z,101794.06
2022-11-10T00:22:13.356Z,101808.22
2022-11-10T00:24:42.313Z,101810.03
2022-11-10T00:27:15.239Z,101810.53
2022-11-10T00:29:44.606Z,101816.25
2022-11-10T00:32:22.732Z,101762.81
2022-11-10T00:34:58.059Z,101825.34
2022-11-10T00:37:25.925Z,101822.28
2022-11-10T00:39:56.280Z,101805.19
2022-11-10T00:42:24.933Z,101776.31
2022-11-10T00:45:12.855Z,101782.28
2022-11-10T00:47:43.939Z,101853.34
2022-11-10T00:50:12.507Z,101810.94
2022-11-10T00:52:39.904Z,101858.59
2022-11-10T00:55:10.190Z,101822.75
2022-11-10T00:57:41.469Z,101841.50
2022-11-10T01:00:10.611Z,101816.47
2022-11-10T01:02:38.702Z,101808.22
2022-11-10T01:05:11.324Z,101832.91
2022-11-10T01:07:42.261Z,101832.63
2022-11-10T01:10:12.623Z,101804.22
2022-11-10T01:12:40.993Z,101849.59
2022-11-10T01:15:11.827Z,101840.44
2022-11-10T01:17:45.882Z,101844.44
2022-11-10T01:20:13.028Z,101816.31
2022-11-10T01:22:41.005Z,101834.75
2022-11-10T01:25:09.172Z,101862.69
2022-11-10T01:27:40.812Z,101847.38
2022-11-10T01:30:10.131Z,101856.66
2022-11-10T01:32:46.423Z,101860.69
2022-11-10T01:35:15.748Z,101833.97
2022-11-10T01:37:54.174Z,101812.81
2022-11-10T01:40:23.844Z,101869.19
2022-11-10T01:42:56.972Z,101888.31
2022-11-10T01:45:45.636Z,101849.44
2022-11-10T01:48:44.101Z,101879.78
2022-11-10T01:51:31.236Z,101898.47
2022-11-10T01:54:06.158Z,101903.69
2022-11-10T01:56:39.815Z,101902.41
2022-11-10T01:59:17.452Z,101906.78
2022-11-10T02:01:51.569Z,101887.31
2022-11-10T02:07:19.225Z,101854.22
2022-11-10T02:12:40.191Z,101880.88
2022-11-10T02:15:12.544Z,101870.28
2022-11-10T02:17:44.964Z,101885.09
2022-11-10T02:20:16.471Z,101897.38
2022-11-10T02:22:51.847Z,101904.47
2022-11-10T02:25:30.437Z,101887.59
2022-11-10T02:27:57.283Z,101922.00
2022-11-10T02:30:29.288Z,101925.81
2022-11-10T02:32:56.389Z,101883.38
2022-11-10T02:35:27.533Z,101884.44
2022-11-10T02:38:06.861Z,101914.44
2022-11-10T02:40:34.025Z,101898.47
2022-11-10T02:43:09.681Z,101931.97
2022-11-10T02:45:43.186Z,101913.34
2022-11-10T02:48:15.833Z,101933.41
2022-11-10T02:50:46.063Z,101947.13
2022-11-10T02:53:12.988Z,101944.84
2022-11-10T02:55:47.014Z,101955.50
2022-11-10T02:58:14.110Z,101953.88
2022-11-10T03:00:41.944Z,101950.22
2022-11-10T03:03:14.618Z,101931.31
2022-11-10T03:05:51.664Z,101909.22
2022-11-10T03:08:20.592Z,101930.13
2022-11-10T03:10:55.552Z,101940.78
2022-11-10T03:13:51.723Z,101954.88
2022-11-10T03:16:28.748Z,101962.22
2022-11-10T03:19:01.959Z,101957.19
2022-11-10T03:21:31.256Z,101923.94
2022-11-10T03:24:05.678Z,101964.75
2022-11-10T03:29:14.898Z,101950.88
2022-11-10T03:31:46.047Z,101953.38
2022-11-10T03:34:13.705Z,101983.00
2022-11-10T03:36:42.707Z,101973.56
2022-11-10T03:39:16.196Z,102001.34
2022-11-10T03:41:47.216Z,101992.81
2022-11-10T03:44:17.630Z,102010.13
2022-11-10T03:49:40.840Z,101996.00
2022-11-10T03:52:07.685Z,102028.16
2022-11-10T03:54:34.509Z,102028.16
2022-11-10T03:57:01.164Z,102035.63
2022-11-10T03:59:29.717Z,102028.75
2022-11-10T04:02:00.948Z,102027.38
2022-11-10T04:04:48.018Z,102039.19
2022-11-10T04:07:34.468Z,102049.00
2022-11-10T04:10:06.468Z,102044.56
2022-11-10T04:12:55.841Z,102051.91
2022-11-10T04:15:42.732Z,102063.22
2022-11-10T04:18:30.083Z,102057.78
2022-11-10T04:21:02.570Z,102059.25
2022-11-10T04:23:36.481Z,102063.56
2022-11-10T04:26:28.696Z,102047.81
2022-11-10T04:29:04.368Z,102054.47
2022-11-10T04:31:37.677Z,102068.50
2022-11-10T04:34:07.640Z,102068.44
2022-11-10T04:36:40.152Z,102076.25
2022-11-10T04:39:11.218Z,102092.13
2022-11-10T04:41:44.526Z,102077.19
2022-11-10T04:44:12.178Z,102054.09
2022-11-10T04:46:44.359Z,102074.06
2022-11-10T04:49:25.902Z,102092.47
2022-11-10T04:52:04.788Z,102101.00
2022-11-10T04:54:44.355Z,102108.16
2022-11-10T04:57:13.261Z,102064.41
2022-11-10T04:59:44.244Z,102098.09
2022-11-10T05:02:16.485Z,102080.03
2022-11-10T05:04:44.149Z,102109.09
2022-11-10T05:07:14.791Z,102100.53
2022-11-10T05:09:49.594Z,102105.78
2022-11-10T05:12:24.636Z,102103.72
2022-11-10T05:17:41.497Z,102102.94
2022-11-10T05:20:10.639Z,102107.28
2022-11-10T05:22:38.170Z,102105.56
2022-11-10T05:25:09.189Z,102109.88
2022-11-10T05:27:53.197Z,102096.03
2022-11-10T05:30:23.530Z,102108.28
2022-11-10T05:32:52.555Z,102117.81
2022-11-10T05:35:24.374Z,102093.72
2022-11-10T05:37:51.586Z,102118.81
2022-11-10T05:40:33.661Z,102075.13
2022-11-10T05:43:04.405Z,102120.78
2022-11-10T05:45:36.676Z,102126.47
2022-11-10T05:48:04.805Z,102085.91
2022-11-10T05:50:33.324Z,102106.44
2022-11-10T05:53:05.054Z,102130.00
2022-11-10T05:55:31.732Z,102090.53
2022-11-10T06:00:55.972Z,102111.56
2022-11-10T06:03:25.728Z,102109.78
2022-11-10T06:05:55.122Z,102145.94
2022-11-10T06:08:24.727Z,102127.31
2022-11-10T06:10:55.523Z,102124.97
2022-11-10T06:13:44.477Z,102146.38
2022-11-10T06:16:16.246Z,102169.53
2022-11-10T06:18:53.431Z,102140.06
2022-11-10T06:22:06.411Z,102157.59
2022-11-10T06:24:41.252Z,102178.06
2022-11-10T06:30:14.728Z,102152.28
2022-11-10T06:33:06.963Z,102190.69
2022-11-10T06:35:41.348Z,102168.78
2022-11-10T06:38:31.098Z,102167.97
2022-11-10T06:43:43.911Z,102171.75
2022-11-10T06:46:19.421Z,102189.88
2022-11-10T06:48:57.899Z,102207.25
2022-11-10T06:51:32.860Z,102178.81
2022-11-10T06:54:00.837Z,102249.91
2022-11-10T06:56:28.093Z,102235.38
2022-11-10T06:59:05.877Z,102255.13
2022-11-10T07:01:45.016Z,102238.75
2022-11-10T07:04:20.370Z,102244.53
2022-11-10T07:07:01.340Z,102246.13
2022-11-10T07:09:36.365Z,102253.22
2022-11-10T07:12:04.469Z,102189.22
2022-11-10T07:14:38.248Z,102252.28
2022-11-10T07:17:09.604Z,102186.81
2022-11-10T07:19:45.428Z,102170.13
2022-11-10T07:25:12.998Z,102230.56
2022-11-10T07:28:13.614Z,102186.63
2022-11-10T07:30:53.485Z,102222.81
2022-11-10T07:33:31.762Z,102209.03
2022-11-10T07:36:04.356Z,102192.72
2022-11-10T07:38:46.530Z,102218.56
2022-11-10T07:41:21.090Z,102198.88
2022-11-10T07:46:31.134Z,102243.13
2022-11-10T07:48:58.462Z,102246.38
2022-11-10T07:51:32.620Z,102211.13
2022-11-10T07:54:03.421Z,102236.78
2022-11-10T07:56:48.546Z,102250.09
2022-11-10T07:59:39.492Z,102248.38
2022-11-10T08:02:13.752Z,102270.00
2022-11-10T08:04:43.449Z,102265.97
2022-11-10T08:07:22.061Z,102270.81
2022-11-10T08:09:53.095Z,102240.28
2022-11-10T08:12:23.252Z,102290.97
2022-11-10T08:14:55.964Z,102283.22
2022-11-10T08:17:26.800Z,102302.78
2022-11-10T08:20:00.940Z,102292.97
2022-11-10T08:22:30.360Z,102297.47
2022-11-10T08:25:01.741Z,102308.47
2022-11-10T08:27:34.442Z,102286.47
2022-11-10T08:30:03.103Z,102284.41
2022-11-10T08:32:45.642Z,102271.22
2022-11-10T08:38:10.418Z,102312.22
2022-11-10T08:43:34.528Z,102300.50
2022-11-10T08:46:03.482Z,102345.31
2022-11-10T08:48:37.589Z,102360.13
2022-11-10T08:51:09.327Z,102348.16
2022-11-10T08:53:41.683Z,102355.91
2022-11-10T08:59:02.176Z,102331.00
2022-11-10T09:01:28.748Z,102332.03
2022-11-10T09:04:00.230Z,102328.47
2022-11-10T09:06:30.900Z,102340.41
2022-11-10T09:09:03.977Z,102360.78
2022-11-10T09:11:35.718Z,102346.44
2022-11-10T09:14:05.431Z,102352.97
2022-11-10T09:21:59.728Z,102364.63
2022-11-10T09:24:32.638Z,102328.94
2022-11-10T09:26:59.970Z,102362.59
2022-11-10T09:29:27.607Z,102373.16
2022-11-10T09:31:59.218Z,102376.31
2022-11-10T09:34:31.077Z,102344.00
2022-11-10T09:37:14.765Z,102340.56
2022-11-10T09:39:45.709Z,102364.75
2022-11-10T09:42:43.553Z,102391.09
2022-11-10T09:45:39.388Z,102391.50
2022-11-10T09:48:44.436Z,102353.72
2022-11-10T09:51:48.023Z,102357.19
2022-11-10T09:54:37.563Z,102410.75
2022-11-10T09:57:14.651Z,102372.84
2022-11-10T09:59:45.424Z,102428.75
2022-11-10T10:02:28.140Z,102430.19
2022-11-10T10:05:21.347Z,102443.03
2022-11-10T10:08:15.626Z,102424.25
2022-11-10T10:11:00.163Z,102412.97
2022-11-10T10:13:45.609Z,102456.69
2022-11-10T10:16:41.768Z,102449.59
2022-11-10T10:19:23.337Z,102446.84
2022-11-10T10:22:19.459Z,102453.09
2022-11-10T10:27:35.268Z,102420.59
2022-11-10T10:30:15.377Z,102437.81
2022-11-10T10:32:49.487Z,102443.06
2022-11-10T10:35:28.594Z,102414.81
2022-11-10T10:37:58.006Z,102382.00
2022-11-10T10:43:22.064Z,102403.47
2022-11-10T10:46:13.024Z,102400.09
2022-11-10T10:48:41.042Z,102417.94
2022-11-10T10:51:07.836Z,102458.16
2022-11-10T10:54:01.549Z,102453.84
2022-11-10T10:56:35.113Z,102427.94
2022-11-10T10:59:17.287Z,102434.13
2022-11-10T11:01:45.829Z,102432.09
2022-11-10T11:04:42.967Z,102429.06
2022-11-10T11:07:32.988Z,102461.00
2022-11-10T11:10:03.749Z,102474.28
2022-11-10T11:12:41.831Z,102451.97
2022-11-10T11:15:29.817Z,102498.44
2022-11-10T11:18:22.475Z,102465.84
2022-11-10T11:21:03.141Z,102459.97
2022-11-10T11:23:47.537Z,102506.16
2022-11-10T11:26:59.367Z,102506.78
2022-11-10T11:29:52.323Z,102494.22
2022-11-10T11:32:35.515Z,102504.00
2022-11-10T11:35:39.834Z,102494.91
2022-11-10T11:38:23.426Z,102474.28
2022-11-10T11:41:21.904Z,102533.56
2022-11-10T11:44:21.015Z,102489.91
2022-11-10T11:47:04.142Z,102503.75
2022-11-10T11:49:47.280Z,102527.84
2022-11-10T11:52:48.367Z,102493.28
2022-11-10T11:55:26.199Z,102488.44
2022-11-10T11:58:12.121Z,102518.50
2022-11-10T12:01:21.460Z,102533.94
2022-11-10T12:04:26.987Z,102528.53
2022-11-10T12:07:04.749Z,102520.16
2022-11-10T12:10:11.470Z,102534.56
2022-11-10T12:12:57.008Z,102537.59
2022-11-10T12:16:15.520Z,102540.13
2022-11-10T12:19:12.005Z,102530.72
2022-11-10T12:21:47.520Z,102536.28
2022-11-10T12:24:50.920Z,102534.84
2022-11-10T12:27:58.450Z,102533.78
2022-11-10T12:30:35.833Z,102529.41
2022-11-10T12:33:13.652Z,102537.31
2022-11-10T12:35:47.035Z,102514.81
2022-11-10T12:38:34.059Z,102529.16
2022-11-10T12:41:11.181Z,102536.91
2022-11-10T12:43:47.501Z,102531.81
2022-11-10T12:46:19.738Z,102520.28
2022-11-10T12:49:20.734Z,102549.53
2022-11-10T12:52:04.539Z,102530.03
2022-11-10T12:54:36.212Z,102553.28
2022-11-10T12:57:19.298Z,102525.41
2022-11-10T12:59:57.263Z,102523.53
2022-11-10T13:02:41.775Z,102539.19
2022-11-10T13:05:34.523Z,102527.66
2022-11-10T13:08:24.121Z,102530.16
2022-11-10T13:11:05.725Z,102532.13
2022-11-10T13:13:59.679Z,102525.88
2022-11-10T13:16:56.505Z,102538.00
2022-11-10T13:19:40.067Z,102542.38
2022-11-10T13:22:13.220Z,102517.88
2022-11-10T13:24:47.388Z,102506.75
2022-11-10T13:27:41.276Z,102554.94
2022-11-10T13:30:13.208Z,102528.13
2022-11-10T13:32:40.333Z,102550.63
2022-11-10T13:35:51.170Z,102545.47
2022-11-10T13:41:27.360Z,102558.91
2022-11-10T13:44:00.962Z,102521.09
2022-11-10T13:47:00.188Z,102546.00
2022-11-10T13:50:00.801Z,102549.53
2022-11-10T13:52:59.358Z,102528.94
2022-11-10T13:55:26.279Z,102563.00
2022-11-10T13:58:27.208Z,102563.16
2022-11-10T14:01:40.098Z,102568.34
2022-11-10T14:04:08.633Z,102572.78
2022-11-10T14:06:56.203Z,102578.19
2022-11-10T14:13:08.953Z,102580.56
2022-11-10T14:16:08.204Z,102579.53
2022-11-10T14:18:52.928Z,102567.88
2022-11-10T14:21:33.088Z,102549.38
2022-11-10T14:24:30.082Z,102572.56
2022-11-10T14:27:25.593Z,102576.31
2022-11-10T14:30:28.054Z,102608.53
2022-11-10T14:32:59.810Z,102604.13
2022-11-10T14:35:38.718Z,102602.00
2022-11-10T14:38:44.937Z,102606.47
2022-11-10T14:44:28.544Z,102594.34
2022-11-10T14:47:03.580Z,102569.47
2022-11-10T14:49:40.482Z,102549.25
2022-11-10T14:54:57.256Z,102563.13
2022-11-10T14:57:28.844Z,102575.31
2022-11-10T15:00:07.966Z,102577.28
2022-11-10T15:05:25.917Z,102555.53
2022-11-10T15:07:58.937Z,102592.78
2022-11-10T15:10:44.591Z,102616.91
2022-11-10T15:13:37.921Z,102617.78
2022-11-10T15:19:27.002Z,102633.81
2022-11-10T15:21:54.226Z,102621.44
2022-11-10T15:24:26.171Z,102626.63
2022-11-10T15:26:52.875Z,102627.16
2022-11-10T15:29:22.203Z,102633.03
2022-11-10T15:31:50.121Z,102636.72
2022-11-10T15:34:47.648Z,102639.38
2022-11-10T15:37:31.564Z,102648.22
2022-11-10T15:40:29.333Z,102646.59
2022-11-10T15:43:08.618Z,102644.06
2022-11-10T15:45:35.648Z,102643.22
2022-11-10T15:48:02.082Z,102637.19
2022-11-10T15:50:28.599Z,102654.00
2022-11-10T15:52:55.001Z,102661.16
2022-11-10T15:55:22.811Z,102661.38
2022-11-10T15:57:49.426Z,102668.66
2022-11-10T16:00:16.185Z,102654.31
2022-11-10T16:02:42.973Z,102662.56
2022-11-10T16:05:11.829Z,102669.78
2022-11-10T16:07:38.436Z,102661.94
2022-11-10T16:10:06.145Z,102663.66
2022-11-10T16:12:32.733Z,102676.03
2022-11-10T16:14:59.902Z,102685.97
2022-11-10T16:17:26.460Z,102693.25
2022-11-10T16:19:52.957Z,102694.88
2022-11-10T16:22:19.428Z,102702.22
2022-11-10T16:24:46.164Z,102695.03
2022-11-10T16:27:14.522Z,102707.47
2022-11-10T16:29:42.455Z,102698.88
2022-11-10T16:32:11.572Z,102705.06
2022-11-10T16:34:37.980Z,102697.31
2022-11-10T16:37:04.438Z,102691.19
2022-11-10T16:39:31.790Z,102700.91
2022-11-10T16:41:58.311Z,102694.88
2022-11-10T16:44:25.677Z,102705.44
2022-11-10T16:46:58.535Z,102710.75
2022-11-10T16:49:36.950Z,102709.91
2022-11-10T16:52:11.735Z,102695.50
2022-11-10T16:54:38.291Z,102697.66
2022-11-10T16:57:16.741Z,102699.25
2022-11-10T16:59:45.596Z,102694.78
2022-11-10T17:02:31.234Z,102694.78
2022-11-10T17:04:58.336Z,102686.44
2022-11-10T17:07:26.903Z,102677.69
2022-11-10T17:09:53.730Z,102677.97
2022-11-10T17:12:20.383Z,102676.38
2022-11-10T17:14:47.281Z,102689.53
2022-11-10T17:17:18.458Z,102698.44
2022-11-10T17:19:54.311Z,102687.22
2022-11-10T17:22:22.671Z,102692.47
2022-11-10T17:24:56.026Z,102699.75
2022-11-10T17:27:22.706Z,102714.56
2022-11-10T17:29:55.395Z,102716.69
2022-11-10T17:32:43.154Z,102717.56
2022-11-10T17:35:09.023Z,102715.84
2022-11-10T17:37:37.038Z,102710.88
2022-11-10T17:40:21.167Z,102710.28
2022-11-10T17:42:48.454Z,102707.56
2022-11-10T17:45:20.173Z,102710.56
2022-11-10T17:47:48.256Z,102715.88
2022-11-10T17:50:19.658Z,102709.34
2022-11-10T17:52:47.223Z,102700.09
2022-11-10T17:55:22.050Z,102708.78
2022-11-10T17:57:51.348Z,102716.03
2022-11-10T18:00:19.284Z,102704.34
2022-11-10T18:02:51.236Z,102709.06
2022-11-10T18:05:21.801Z,102709.19
2022-11-10T18:07:59.034Z,102695.25
2022-11-10T18:10:25.602Z,102702.81
2022-11-10T18:12:52.080Z,102713.59
2022-11-10T18:15:26.470Z,102707.69
2022-11-10T18:17:58.489Z,102721.69
2022-11-10T18:20:26.616Z,102728.28
2022-11-10T18:22:55.210Z,102718.78
2022-11-10T18:25:39.244Z,102711.66
2022-11-10T18:30:49.995Z,102717.38
2022-11-10T18:33:16.471Z,102718.09
2022-11-10T18:35:42.998Z,102725.81
2022-11-10T18:38:11.775Z,102721.31
2022-11-10T18:40:38.230Z,102724.28
2022-11-10T18:43:07.667Z,102725.22
2022-11-10T18:45:36.830Z,102736.50
2022-11-10T18:48:04.529Z,102744.75
2022-11-10T18:50:37.696Z,102719.44
2022-11-10T18:53:05.724Z,102734.25
2022-11-10T18:55:32.265Z,102733.53
2022-11-10T18:57:59.703Z,102737.31
2022-11-10T19:00:26.144Z,102744.34
2022-11-10T19:02:52.557Z,102741.75
2022-11-10T19:05:19.166Z,102743.66
2022-11-10T19:07:47.122Z,102741.00
2022-11-10T19:10:13.682Z,102751.72
2022-11-10T19:12:40.074Z,102750.91
2022-11-10T19:15:07.046Z,102761.47
2022-11-10T19:17:33.466Z,102762.63
2022-11-10T19:19:59.916Z,102758.13
2022-11-10T19:22:29.951Z,102757.16
2022-11-10T19:25:12.318Z,102746.47
2022-11-10T19:27:38.808Z,102751.78
2022-11-10T19:30:08.507Z,102747.38
2022-11-10T19:32:35.684Z,102744.84
2022-11-10T19:35:04.375Z,102742.25
2022-11-10T19:37:34.610Z,102760.53
2022-11-10T19:40:13.417Z,102767.03
2022-11-10T19:42:43.298Z,102759.09
2022-11-10T19:45:09.986Z,102759.69
2022-11-10T19:47:39.178Z,102762.00
2022-11-10T19:50:07.274Z,102770.00
2022-11-10T19:52:33.993Z,102773.44
2022-11-10T19:55:00.535Z,102771.59
2022-11-10T19:57:28.310Z,102769.97
2022-11-10T19:59:55.815Z,102757.66
2022-11-10T20:02:22.455Z,102773.78
2022-11-10T20:05:10.490Z,102769.50
2022-11-10T20:07:55.920Z,102776.25
2022-11-10T20:10:22.932Z,102771.91
2022-11-10T20:12:49.718Z,102790.44
2022-11-10T20:15:16.492Z,102789.59
2022-11-10T20:17:43.217Z,102779.94
2022-11-10T20:20:09.783Z,102777.28
2022-11-10T20:22:39.398Z,102771.81
2022-11-10T20:25:06.428Z,102766.59
2022-11-10T20:27:33.058Z,102768.59
2022-11-10T20:30:01.129Z,102759.69
2022-11-10T20:32:33.480Z,102756.78
2022-11-10T20:35:00.669Z,102755.13
2022-11-10T20:37:27.257Z,102761.47
2022-11-10T20:39:53.885Z,102769.31
2022-11-10T20:42:20.609Z,102761.59
2022-11-10T20:44:47.241Z,102753.69
2022-11-10T20:47:14.070Z,102764.75
2022-11-10T20:49:40.631Z,102770.19
2022-11-10T20:52:07.324Z,102772.41
2022-11-10T20:54:34.140Z,102780.88
2022-11-10T20:57:00.712Z,102795.75
2022-11-10T20:59:27.832Z,102784.44
2022-11-10T21:01:54.842Z,102799.50
2022-11-10T21:04:22.735Z,102808.28
2022-11-10T21:06:49.407Z,102800.50
2022-11-10T21:09:16.767Z,102810.44
2022-11-10T21:12:01.973Z,102813.66
2022-11-10T21:14:29.019Z,102844.81
2022-11-10T21:17:02.852Z,102845.75
2022-11-10T21:19:37.150Z,102850.50
2022-11-10T21:22:03.719Z,102859.94
2022-11-10T21:24:30.807Z,102868.09
2022-11-10T21:26:57.937Z,102861.03
2022-11-10T21:29:24.709Z,102863.94
2022-11-10T21:31:51.457Z,102869.31
2022-11-10T21:34:20.413Z,102870.16
2022-11-10T21:36:48.668Z,102875.75
2022-11-10T21:39:15.428Z,102859.13
2022-11-10T21:41:42.306Z,102874.03
2022-11-10T21:44:09.660Z,102866.06
2022-11-10T21:46:37.339Z,102881.13
2022-11-10T21:49:07.699Z,102876.13
2022-11-10T21:51:34.942Z,102865.84
2022-11-10T21:54:06.472Z,102873.31
2022-11-10T21:56:34.336Z,102888.28
2022-11-10T21:59:00.907Z,102892.81
2022-11-10T22:01:28.054Z,102894.56
2022-11-10T22:03:54.734Z,102880.25
2022-11-10T22:06:21.979Z,102903.22
2022-11-10T22:08:49.196Z,102890.75
2022-11-10T22:11:39.313Z,102887.13
2022-11-10T22:14:35.661Z,102894.28
2022-11-10T22:17:23.334Z,102876.22
2022-11-10T22:19:50.186Z,102861.41
2022-11-10T22:22:16.723Z,102851.25
2022-11-10T22:24:43.302Z,102885.50
2022-11-10T22:27:11.345Z,102896.06
2022-11-10T22:29:37.906Z,102888.03
2022-11-10T22:32:04.735Z,102873.91
2022-11-10T22:34:32.431Z,102867.63
2022-11-10T22:37:01.950Z,102862.31
2022-11-10T22:39:51.571Z,102869.69
2022-11-10T22:42:36.731Z,102884.34
2022-11-10T22:45:04.094Z,102880.03
2022-11-10T22:47:50.589Z,102891.22
2022-11-10T22:50:17.761Z,102888.69
2022-11-10T22:52:45.927Z,102893.94
2022-11-10T22:55:12.946Z,102890.25
2022-11-10T22:57:41.634Z,102889.56
2022-11-10T23:00:11.954Z,102908.88
2022-11-10T23:02:39.033Z,102905.44
2022-11-10T23:05:07.018Z,102906.22
2022-11-10T23:07:35.006Z,102918.41
2022-11-10T23:10:01.893Z,102920.97
2022-11-10T23:12:29.678Z,102925.34
2022-11-10T23:14:56.384Z,102914.72
2022-11-10T23:17:23.156Z,102913.91
2022-11-10T23:19:49.806Z,102912.25
2022-11-10T23:22:16.938Z,102897.94
2022-11-10T23:24:43.552Z,102895.22
2022-11-10T23:27:10.200Z,102902.72
2022-11-10T23:29:36.842Z,102904.34
2022-11-10T23:32:03.762Z,102910.50
2022-11-10T23:34:30.509Z,102899.59
2022-11-10T23:36:57.010Z,102909.53
2022-11-10T23:39:24.202Z,102924.47
2022-11-10T23:41:52.208Z,102916.78
2022-11-10T23:44:18.855Z,102920.16
2022-11-10T23:46:45.498Z,102941.16
2022-11-10T23:49:12.254Z,102935.25
2022-11-10T23:51:41.875Z,102938.91
2022-11-10T23:54:08.778Z,102909.94
2022-11-10T23:56:35.497Z,102918.59
2022-11-10T23:59:03.717Z,102937.38
